createdAt,value
2023-04-25T00:02:20.681Z,97021.59
2023-04-25T00:04:50.782Z,97019.34
2023-04-25T00:07:19.150Z,97027.38
2023-04-25T00:09:47.324Z,97029.09
2023-04-25T00:12:16.153Z,97029.91
2023-04-25T00:14:44.150Z,97022.69
2023-04-25T00:17:12.362Z,97033.72
2023-04-25T00:19:40.413Z,97028.53
2023-04-25T00:22:09.932Z,97035.38
2023-04-25T00:24:37.941Z,97035.69
2023-04-25T00:27:06.032Z,97037.19
2023-04-25T00:29:34.010Z,97037.59
2023-04-25T00:32:02.516Z,97043.22
2023-04-25T00:34:30.600Z,97030.72
2023-04-25T00:36:58.907Z,97030.69
2023-04-25T00:39:28.255Z,97033.84
2023-04-25T00:41:56.726Z,97039.25
2023-04-25T00:44:25.656Z,97037.94
2023-04-25T00:46:54.481Z,97032.25
2023-04-25T00:49:22.481Z,97031.50
2023-04-25T00:51:50.661Z,97032.56
2023-04-25T00:54:19.227Z,97034.59
2023-04-25T00:56:48.694Z,97033.31
2023-04-25T00:59:17.606Z,97049.56
2023-04-25T01:01:46.217Z,97025.00
2023-04-25T01:04:15.316Z,97038.56
2023-04-25T01:06:43.811Z,97036.75
2023-04-25T01:09:12.304Z,97054.19
2023-04-25T01:11:41.268Z,97052.75
2023-04-25T01:14:10.875Z,97043.22
2023-04-25T01:16:39.283Z,97049.50
2023-04-25T01:19:12.195Z,97051.97
2023-04-25T01:21:41.951Z,97043.56
2023-04-25T01:24:10.389Z,97048.19
2023-04-25T01:26:39.230Z,97052.78
2023-04-25T01:29:07.437Z,97059.13
2023-04-25T01:31:37.243Z,97061.66
2023-04-25T01:34:06.946Z,97055.75
2023-04-25T01:36:36.147Z,97065.19
2023-04-25T01:39:05.832Z,97064.28
2023-04-25T01:41:35.617Z,97053.50
2023-04-25T01:44:04.603Z,97066.00
2023-04-25T01:46:32.853Z,97058.25
2023-04-25T01:49:01.169Z,97052.97
2023-04-25T01:51:29.412Z,97051.56
2023-04-25T01:54:00.479Z,97062.44
2023-04-25T01:56:34.064Z,97061.44
2023-04-25T01:59:02.961Z,97062.97
2023-04-25T02:01:33.936Z,97068.59
2023-04-25T02:04:16.438Z,97064.53
2023-04-25T02:06:45.707Z,97066.16
2023-04-25T02:09:14.054Z,97080.84
2023-04-25T02:11:48.407Z,97079.34
2023-04-25T02:14:34.946Z,97079.47
2023-04-25T02:17:17.145Z,97071.03
2023-04-25T02:19:46.302Z,97087.53
2023-04-25T02:22:14.610Z,97072.53
2023-04-25T02:24:42.616Z,97065.75
2023-04-25T02:27:12.064Z,97075.38
2023-04-25T02:29:40.336Z,97062.56
2023-04-25T02:32:08.365Z,97083.50
2023-04-25T02:34:36.549Z,97077.84
2023-04-25T02:37:04.565Z,97073.31
2023-04-25T02:39:32.694Z,97064.56
2023-04-25T02:42:02.059Z,97073.59
2023-04-25T02:44:32.905Z,97069.66
2023-04-25T02:47:01.035Z,97070.97
2023-04-25T02:49:29.012Z,97064.56
2023-04-25T02:51:57.107Z,97074.41
2023-04-25T02:54:25.141Z,97064.75
2023-04-25T02:56:53.455Z,97061.94
2023-04-25T02:59:26.855Z,97067.28
2023-04-25T03:01:56.444Z,97067.81
2023-04-25T03:04:25.207Z,97067.06
2023-04-25T03:06:54.168Z,97064.03
2023-04-25T03:09:23.509Z,97060.28
2023-04-25T03:11:53.343Z,97063.81
2023-04-25T03:14:21.842Z,97060.50
2023-04-25T03:16:50.023Z,97059.47
2023-04-25T03:19:21.502Z,97064.88
2023-04-25T03:21:49.936Z,97063.97
2023-04-25T03:24:17.986Z,97066.06
2023-04-25T03:26:46.369Z,97065.50
2023-04-25T03:29:14.449Z,97070.69
2023-04-25T03:31:44.161Z,97062.53
2023-04-25T03:34:12.318Z,97085.97
2023-04-25T03:36:41.936Z,97080.63
2023-04-25T03:39:11.128Z,97069.31
2023-04-25T03:41:41.012Z,97077.63
2023-04-25T03:44:14.361Z,97076.13
2023-04-25T03:46:42.898Z,97084.41
2023-04-25T03:49:11.220Z,97071.59
2023-04-25T03:52:02.604Z,97089.69
2023-04-25T03:54:36.094Z,97090.41
2023-04-25T03:57:11.388Z,97090.91
2023-04-25T03:59:41.161Z,97096.06
2023-04-25T04:02:12.057Z,97109.19
2023-04-25T04:04:41.270Z,97101.44
2023-04-25T04:07:11.990Z,97112.97
2023-04-25T04:09:42.897Z,97113.50
2023-04-25T04:12:16.882Z,97109.97
2023-04-25T04:14:45.057Z,97126.00
2023-04-25T04:17:13.537Z,97132.75
2023-04-25T04:19:41.767Z,97138.03
2023-04-25T04:22:17.745Z,97132.25
2023-04-25T04:24:47.499Z,97134.78
2023-04-25T04:27:21.191Z,97143.28
2023-04-25T04:30:16.027Z,97139.97
2023-04-25T04:33:00.078Z,97137.38
2023-04-25T04:35:28.450Z,97142.00
2023-04-25T04:37:57.998Z,97144.59
2023-04-25T04:40:31.506Z,97144.13
2023-04-25T04:43:09.933Z,97146.56
2023-04-25T04:45:39.204Z,97163.28
2023-04-25T04:48:20.295Z,97165.84
2023-04-25T04:51:03.404Z,97157.75
2023-04-25T04:53:52.848Z,97150.75
2023-04-25T04:56:32.017Z,97161.28
2023-04-25T04:59:20.481Z,97167.81
2023-04-25T05:02:08.420Z,97155.03
2023-04-25T05:04:53.776Z,97169.06
2023-04-25T05:07:37.721Z,97164.56
2023-04-25T05:10:22.579Z,97161.75
2023-04-25T05:13:06.501Z,97160.56
2023-04-25T05:15:53.883Z,97170.31
2023-04-25T05:18:50.636Z,97166.91
2023-04-25T05:21:37.153Z,97169.41
2023-04-25T05:24:25.729Z,97181.97
2023-04-25T05:27:04.059Z,97184.44
2023-04-25T05:30:05.954Z,97171.53
2023-04-25T05:32:56.992Z,97175.78
2023-04-25T05:35:25.481Z,97189.06
2023-04-25T05:37:53.514Z,97201.66
2023-04-25T05:40:30.320Z,97195.72
2023-04-25T05:43:14.175Z,97196.03
2023-04-25T05:46:21.032Z,97202.19
2023-04-25T05:49:13.079Z,97196.47
2023-04-25T05:51:59.919Z,97199.34
2023-04-25T05:54:57.337Z,97207.13
2023-04-25T05:57:27.415Z,97214.16
2023-04-25T05:59:59.132Z,97204.81
2023-04-25T06:02:41.553Z,97218.63
2023-04-25T06:05:11.393Z,97206.88
2023-04-25T06:07:39.628Z,97215.19
2023-04-25T06:10:09.446Z,97227.06
2023-04-25T06:12:37.503Z,97233.16
2023-04-25T06:15:20.106Z,97218.69
2023-04-25T06:17:55.189Z,97228.19
2023-04-25T06:20:25.581Z,97221.56
2023-04-25T06:22:55.761Z,97223.38
2023-04-25T06:25:32.800Z,97229.03
2023-04-25T06:28:01.499Z,97241.59
2023-04-25T06:30:30.930Z,97248.53
2023-04-25T06:33:05.011Z,97234.47
2023-04-25T06:35:34.176Z,97235.97
2023-04-25T06:38:02.521Z,97227.19
2023-04-25T06:40:32.064Z,97244.03
2023-04-25T06:43:00.510Z,97239.28
2023-04-25T06:45:43.762Z,97237.06
2023-04-25T06:48:12.648Z,97237.06
2023-04-25T06:50:40.690Z,97238.66
2023-04-25T06:53:09.904Z,97237.63
2023-04-25T06:55:38.602Z,97225.66
2023-04-25T06:58:17.091Z,97240.19
2023-04-25T07:01:09.809Z,97238.25
2023-04-25T07:03:39.437Z,97249.28
2023-04-25T07:06:13.520Z,97239.78
2023-04-25T07:08:41.601Z,97247.16
2023-04-25T07:11:09.606Z,97235.16
2023-04-25T07:13:38.760Z,97244.78
2023-04-25T07:16:07.502Z,97245.41
2023-04-25T07:18:38.452Z,97232.03
2023-04-25T07:21:06.883Z,97237.53
2023-04-25T07:23:36.286Z,97226.94
2023-04-25T07:26:10.765Z,97246.97
2023-04-25T07:28:46.001Z,97235.97
2023-04-25T07:31:14.065Z,97231.41
2023-04-25T07:33:43.467Z,97245.00
2023-04-25T07:36:11.644Z,97266.66
2023-04-25T07:38:39.702Z,97251.28
2023-04-25T07:41:07.958Z,97246.66
2023-04-25T07:43:36.227Z,97237.19
2023-04-25T07:46:05.471Z,97240.88
2023-04-25T07:48:35.236Z,97244.03
2023-04-25T07:51:06.320Z,97247.91
2023-04-25T07:53:38.671Z,97256.22
2023-04-25T07:56:11.717Z,97260.47
2023-04-25T07:58:42.279Z,97245.03
2023-04-25T08:01:12.568Z,97262.28
2023-04-25T08:03:55.602Z,97245.63
2023-04-25T08:06:31.162Z,97249.94
2023-04-25T08:09:19.872Z,97245.13
2023-04-25T08:11:48.673Z,97239.97
2023-04-25T08:14:19.039Z,97240.22
2023-04-25T08:16:47.679Z,97252.28
2023-04-25T08:19:15.951Z,97259.22
2023-04-25T08:21:46.273Z,97250.25
2023-04-25T08:24:18.534Z,97250.78
2023-04-25T08:26:46.646Z,97256.47
2023-04-25T08:29:17.834Z,97245.97
2023-04-25T08:31:46.557Z,97242.00
2023-04-25T08:34:16.258Z,97249.78
2023-04-25T08:36:48.465Z,97254.47
2023-04-25T08:39:40.035Z,97247.94
2023-04-25T08:42:30.273Z,97245.25
2023-04-25T08:44:59.737Z,97251.13
2023-04-25T08:47:36.407Z,97267.72
2023-04-25T08:50:06.530Z,97273.16
2023-04-25T08:52:39.656Z,97252.81
2023-04-25T08:55:11.932Z,97256.97
2023-04-25T08:57:43.831Z,97276.41
2023-04-25T09:00:13.466Z,97267.91
2023-04-25T09:05:35.189Z,97263.50
2023-04-25T09:08:04.861Z,97272.78
2023-04-25T09:10:29.160Z,97263.06
2023-04-25T09:10:33.322Z,97279.06
2023-04-25T09:13:06.789Z,97275.88
2023-04-25T09:15:53.246Z,97268.31
2023-04-25T09:18:37.510Z,97274.34
2023-04-25T09:21:14.152Z,97263.41
2023-04-25T09:23:49.282Z,97272.09
2023-04-25T09:26:19.135Z,97265.88
2023-04-25T09:28:49.092Z,97264.47
2023-04-25T09:31:25.813Z,97272.00
2023-04-25T09:34:01.496Z,97274.28
2023-04-25T09:36:32.850Z,97283.72
2023-04-25T09:39:23.246Z,97286.66
2023-04-25T09:41:59.382Z,97269.31
2023-04-25T09:44:28.154Z,97277.97
2023-04-25T09:46:56.978Z,97288.94
2023-04-25T09:49:29.250Z,97272.78
2023-04-25T09:52:11.619Z,97278.53
2023-04-25T09:54:48.739Z,97271.50
2023-04-25T09:57:23.493Z,97284.09
2023-04-25T09:59:53.445Z,97270.69
2023-04-25T10:02:23.604Z,97273.72
2023-04-25T10:04:57.091Z,97270.47
2023-04-25T10:07:39.326Z,97277.19
2023-04-25T10:10:15.335Z,97269.22
2023-04-25T10:12:45.299Z,97276.78
2023-04-25T10:15:14.482Z,97278.19
2023-04-25T10:17:42.684Z,97274.97
2023-04-25T10:20:12.292Z,97278.19
2023-04-25T10:22:43.338Z,97278.75
2023-04-25T10:25:13.352Z,97277.50
2023-04-25T10:27:41.609Z,97276.34
2023-04-25T10:30:13.680Z,97257.81
2023-04-25T10:32:43.591Z,97270.81
2023-04-25T10:35:13.522Z,97275.91
2023-04-25T10:37:59.412Z,97270.66
2023-04-25T10:40:29.120Z,97265.38
2023-04-25T10:42:58.051Z,97268.19
2023-04-25T10:45:26.128Z,97261.13
2023-04-25T10:47:54.169Z,97262.22
2023-04-25T10:50:22.204Z,97256.69
2023-04-25T10:52:50.259Z,97270.56
2023-04-25T10:55:18.320Z,97261.91
2023-04-25T10:57:50.404Z,97258.09
2023-04-25T11:00:20.072Z,97276.41
2023-04-25T11:02:49.741Z,97257.38
2023-04-25T11:05:36.516Z,97252.34
2023-04-25T11:08:15.104Z,97252.41
2023-04-25T11:10:43.916Z,97243.16
2023-04-25T11:13:13.310Z,97247.78
2023-04-25T11:15:41.448Z,97242.19
2023-04-25T11:18:09.530Z,97242.75
2023-04-25T11:20:37.745Z,97251.00
2023-04-25T11:23:06.764Z,97250.94
2023-04-25T11:25:35.553Z,97246.00
2023-04-25T11:28:06.452Z,97243.94
2023-04-25T11:30:35.842Z,97245.69
2023-04-25T11:33:04.508Z,97241.97
2023-04-25T11:35:34.703Z,97242.22
2023-04-25T11:38:03.619Z,97245.25
2023-04-25T11:40:33.057Z,97244.72
2023-04-25T11:43:02.773Z,97254.97
2023-04-25T11:45:31.736Z,97254.50
2023-04-25T11:48:01.538Z,97236.47
2023-04-25T11:50:30.760Z,97249.25
2023-04-25T11:52:59.247Z,97237.47
2023-04-25T11:55:27.504Z,97238.94
2023-04-25T11:57:55.631Z,97238.97
2023-04-25T12:00:24.898Z,97240.97
2023-04-25T12:02:54.946Z,97245.97
2023-04-25T12:05:32.537Z,97245.47
2023-04-25T12:08:12.550Z,97242.16
2023-04-25T12:10:42.015Z,97235.22
2023-04-25T12:13:23.852Z,97235.19
2023-04-25T12:15:52.430Z,97240.69
2023-04-25T12:18:22.720Z,97237.97
2023-04-25T12:20:52.116Z,97237.44
2023-04-25T12:23:27.709Z,97238.47
2023-04-25T12:25:56.571Z,97233.69
2023-04-25T12:28:25.959Z,97241.66
2023-04-25T12:31:01.887Z,97239.63
2023-04-25T12:33:31.342Z,97236.38
2023-04-25T12:36:06.475Z,97228.53
2023-04-25T12:38:38.936Z,97232.34
2023-04-25T12:41:07.359Z,97227.69
2023-04-25T12:43:36.115Z,97237.47
2023-04-25T12:46:04.284Z,97243.13
2023-04-25T12:48:32.431Z,97243.13
2023-04-25T12:51:01.973Z,97248.44
2023-04-25T12:53:30.943Z,97255.00
2023-04-25T12:55:59.030Z,97268.28
2023-04-25T12:58:27.106Z,97255.94
2023-04-25T13:00:55.200Z,97259.63
2023-04-25T13:03:24.309Z,97247.47
2023-04-25T13:05:53.711Z,97244.03
2023-04-25T13:08:23.111Z,97247.63
2023-04-25T13:10:51.126Z,97271.84
2023-04-25T13:13:19.123Z,97255.63
2023-04-25T13:15:47.296Z,97258.13
2023-04-25T13:18:15.398Z,97243.84
2023-04-25T13:20:43.576Z,97250.06
2023-04-25T13:23:11.578Z,97241.88
2023-04-25T13:25:41.095Z,97238.16
2023-04-25T13:28:09.373Z,97241.06
2023-04-25T13:30:38.012Z,97238.44
2023-04-25T13:33:07.809Z,97240.91
2023-04-25T13:35:38.014Z,97248.44
2023-04-25T13:38:06.668Z,97236.19
2023-04-25T13:40:34.801Z,97238.19
2023-04-25T13:43:04.298Z,97254.72
2023-04-25T13:45:33.576Z,97258.94
2023-04-25T13:48:01.923Z,97245.25
2023-04-25T13:50:30.127Z,97245.75
2023-04-25T13:52:58.195Z,97257.25
2023-04-25T13:55:26.532Z,97249.47
2023-04-25T13:57:54.532Z,97236.19
2023-04-25T14:00:24.293Z,97236.19
2023-04-25T14:02:52.819Z,97242.91
2023-04-25T14:05:21.122Z,97249.00
2023-04-25T14:07:49.710Z,97245.75
2023-04-25T14:10:17.767Z,97256.28
2023-04-25T14:12:45.814Z,97246.50
2023-04-25T14:15:14.091Z,97236.69
2023-04-25T14:17:43.538Z,97242.84
2023-04-25T14:20:12.694Z,97247.97
2023-04-25T14:22:44.699Z,97249.75
2023-04-25T14:25:13.018Z,97255.25
2023-04-25T14:27:43.004Z,97245.97
2023-04-25T14:30:12.953Z,97255.75
2023-04-25T14:32:41.170Z,97258.78
2023-04-25T14:35:11.266Z,97255.25
2023-04-25T14:37:39.518Z,97262.03
2023-04-25T14:40:09.856Z,97257.53
2023-04-25T14:42:37.982Z,97263.75
2023-04-25T14:45:08.688Z,97275.53
2023-04-25T14:47:37.251Z,97282.28
2023-04-25T14:50:06.129Z,97281.78
2023-04-25T14:52:35.805Z,97291.81
2023-04-25T14:55:06.266Z,97271.06
2023-04-25T14:57:34.794Z,97266.03
2023-04-25T15:00:03.327Z,97264.00
2023-04-25T15:02:31.505Z,97267.53
2023-04-25T20:10:49.578Z,97449.00
2023-04-25T20:13:17.697Z,97450.22
2023-04-25T20:15:46.123Z,97449.06
2023-04-25T20:18:14.233Z,97444.34
2023-04-25T20:20:42.317Z,97443.44
2023-04-25T20:23:11.354Z,97449.63
2023-04-25T20:25:39.417Z,97446.13
2023-04-25T20:28:08.924Z,97449.47
2023-04-25T20:30:37.803Z,97454.84
2023-04-25T20:33:07.442Z,97454.50
2023-04-25T20:35:35.615Z,97464.34
2023-04-25T20:38:03.693Z,97467.84
2023-04-25T20:40:31.913Z,97469.78
2023-04-25T20:43:01.656Z,97478.97
2023-04-25T20:45:32.325Z,97467.22
2023-04-25T20:48:01.080Z,97475.38
2023-04-25T20:50:29.428Z,97472.22
2023-04-25T20:52:58.245Z,97477.03
2023-04-25T20:55:27.124Z,97474.50
2023-04-25T20:57:55.138Z,97477.25
2023-04-25T21:00:27.334Z,97471.19
2023-04-25T21:02:57.994Z,97472.31
2023-04-25T21:05:26.337Z,97473.16
2023-04-25T21:07:54.302Z,97470.34
2023-04-25T21:10:22.483Z,97480.78
2023-04-25T21:12:52.007Z,97485.34
2023-04-25T21:15:21.415Z,97481.44
2023-04-25T21:17:50.015Z,97489.72
2023-04-25T21:20:20.821Z,97482.28
2023-04-25T21:22:53.049Z,97490.16
2023-04-25T21:25:25.604Z,97484.00
2023-04-25T21:27:54.504Z,97496.25
2023-04-25T21:30:24.032Z,97493.59
2023-04-25T21:32:52.871Z,97501.66
2023-04-25T21:35:23.531Z,97510.19
2023-04-25T21:37:52.802Z,97506.69
2023-04-25T21:40:21.002Z,97509.97
2023-04-25T21:42:51.653Z,97512.41
2023-04-25T21:45:20.984Z,97511.19
2023-04-25T21:47:49.619Z,97508.53
2023-04-25T21:50:18.431Z,97522.09
2023-04-25T21:52:48.250Z,97516.78
2023-04-25T21:55:16.960Z,97520.59
2023-04-25T21:57:44.939Z,97520.34
2023-04-25T22:00:22.129Z,97511.25
2023-04-25T22:02:51.184Z,97526.75
2023-04-25T22:05:20.618Z,97520.81
2023-04-25T22:07:50.877Z,97515.56
2023-04-25T22:10:19.721Z,97520.97
2023-04-25T22:12:50.752Z,97521.38
2023-04-25T22:15:19.430Z,97532.72
2023-04-25T22:17:48.047Z,97529.59
2023-04-25T22:20:17.139Z,97535.28
2023-04-25T22:22:45.385Z,97528.84
2023-04-25T22:25:14.735Z,97543.47
2023-04-25T22:27:43.713Z,97545.28
2023-04-25T22:30:13.793Z,97542.63
2023-04-25T22:32:42.418Z,97542.09
2023-04-25T22:35:11.769Z,97538.59
2023-04-25T22:37:40.138Z,97549.34
2023-04-25T22:40:09.267Z,97545.13
2023-04-25T22:42:43.253Z,97544.16
2023-04-25T22:45:12.554Z,97551.56
2023-04-25T22:47:41.131Z,97553.94
2023-04-25T22:50:13.635Z,97554.19
2023-04-25T22:52:42.683Z,97557.25
2023-04-25T22:55:12.437Z,97555.72
2023-04-25T22:57:42.530Z,97552.13
2023-04-25T23:00:16.585Z,97558.25
2023-04-25T23:02:46.723Z,97554.00
2023-04-25T23:05:15.847Z,97545.31
2023-04-25T23:07:44.911Z,97547.78
2023-04-25T23:10:14.237Z,97550.50
2023-04-25T23:12:44.142Z,97570.66
2023-04-25T23:15:13.787Z,97547.50
2023-04-25T23:17:42.169Z,97565.75
2023-04-25T23:20:12.072Z,97553.34
2023-04-25T23:22:40.442Z,97557.56
2023-04-25T23:25:10.057Z,97564.41
2023-04-25T23:27:38.570Z,97564.59
2023-04-25T23:30:10.195Z,97558.72
2023-04-25T23:32:38.468Z,97556.09
2023-04-25T23:35:07.750Z,97562.72
2023-04-25T23:37:37.165Z,97567.44
2023-04-25T23:40:08.684Z,97568.50
2023-04-25T23:42:37.344Z,97571.97
2023-04-25T23:45:06.828Z,97570.09
2023-04-25T23:47:36.438Z,97567.53
2023-04-25T23:50:05.323Z,97581.06
2023-04-25T23:52:33.325Z,97572.28
2023-04-25T23:55:01.450Z,97569.81
2023-04-25T23:57:29.583Z,97574.16
2023-04-25T23:59:57.693Z,97577.47
